Airfield :
LOGIN :

Register | Disclaimer

   EN    FR    IT 

 










Legend :    VFR   Marginal VFR   IFR   Intensive IFR   Very Intensive IFR
Visi :
Ceiling :
>= 8 km
>= 3000ft
5 to 8 km
1000 to 3000 ft
1500m to 5 km
500 to 1000 ft
800 to 1500m
200 to 500 ft
< 800m
< 200 ft
Symbols :   Thunderstorms  Fog  Heavy snow  Heavy precipitations  Wind > 20 kt
SIGMETs :     Misc.  Thunderstorms  Icing  Turbulence  Mountain Waves  Volcanic Ashes






- Airport Elevation : 348 ft
- IATA code : STN


EGSS - London Stansted

CURRENT METAR :
  • 172250Z AUTO 03006KT 6000 -RA BKN004 OVC027 15/15 Q1015

EXPIRED METARs :
  • 172220Z AUTO 03007KT 4400 -DZ BKN004 BKN026 OVC034 16/15 Q1015
  • 172150Z AUTO 02006KT 4900 -DZ SCT006 BKN016 OVC032 16/15 Q1015
  • 172120Z AUTO 01005KT 6000 -RA OVC031 16/15 Q1015 RERA
  • 172050Z AUTO 02007KT 4600 -RA BKN032/// OVC038/// //////TCU 16/15 Q1014 RERA
  • 172020Z AUTO 35004KT 260V040 3600 RA SCT006/// BKN029/// BKN036/// //////TCU 16/16 Q1014 RERA REDZ

TAF AMD TAF EGSS
Valid from the 17 at 23:00 until the 19 at 00:00 UTC


172206Z 1723/1824 36007KT 9999 FEW015 BKN030
TEMPO 1723/1724 4000 RA BKN004
PROB40
TEMPO 1800/1807 BKN012
PROB30
TEMPO 1800/1807 6000 -RA
TEMPO 1807/1823 5000 RA BKN010
PROB30
TEMPO 1808/1819 03015G25KT 2500 +TSRA BKN004 BKN060CB
BECMG 1819/1823 BKN012
PROB30
TEMPO 1819/1822 3000 +RA BKN005
ATIS : +44 1279 669 325



MET'MAP, your aeronautical weather chart ! - Copyright ORBIFLY December 2007 - Disclaimer

ORBIFLY MET'MAP TEAM :

Programming & Development : Alexandra Zaïnal
Concept & original design : Baudouin d'Aumeries
Assistance for programming : Marc-Olivier Méhu
Technical & hardware support : Manuel Goepfert

Contact : metmap@orbifly.com




SOURCES & CREDITS :

   NOAA